Gjoa Haven Airport
CYHK : rendu visible

Aérodrome :











RETROUVEZ-NOUS SUR...

 
LOGIN :

S'inscrire | Disclaimer

   EN    FR    IT 

 









Légende :    VFR   VFR Marginal   IFR   IFR Intensif   IFR Très Intensif
Visi : 
Plafond : 
>= 8 km
>= 3000ft
5 à 8 km
1000 à 3000 ft
1500m à 5 km
500 à 1000 ft
800 à 1500m
200 à 500 ft
< 800m
< 200 ft
Symboles :   Orages  Brouillard  Fortes neiges  Fortes précipitations  Vent > 20 kt






- Altitude de l'aérodrome : 152 ft
- Code IATA : YHK


CYHK - Gjoa Haven

DERNIER METAR :
  • 221914Z AUTO 31013KT 2SM HZ CLR M34/M38 A2982 RMK SLP111

METARs EXPIRÉS :
  • 221830Z AUTO 32012KT 2 1/2SM HZ CLR M35/M38 A2981 RMK SLP107
  • 221800Z AUTO 30008KT 2SM HZ CLR M35/M39 A2981 RMK SLP106
  • 221728Z AUTO 30010KT 2 1/4SM HZ CLR M36/M39 A2980 RMK SLP104
  • 221720Z AUTO 28009KT 2 1/2SM HZ CLR M36/M40 A2981 RMK SLP105
  • 221700Z AUTO 29010KT 4SM HZ CLR M36/M40 A2980 RMK SLP102

TAF TAF CYHK
Valide du 22 à 18h jusqu'au 23 à 06h UTC


221738Z 2218/2306 30010KT 4SM IC SCT020
TEMPO 2218/2304 2SM IC HZ BKN020
BECMG 2222/2224 30015KT
FM230400 30015KT P6SM FEW060
TEMPO 2305/2306 3SM IC SCT060 RMK FCST BASED ON AUTO OBS. NXT FCST BY 230000Z



MET'MAP, la Météo Aéronautique d'un coup d'oeil ! - Copyright ORBIFLY Décembre 2007 - Disclaimer

ORBIFLY MET'MAP TEAM :

Programmation & Développement : Alexandra Zaïnal
Sur une idée originale de : Baudouin d'Aumeries
Assistance à la programmation : Marc-Olivier Méhu
Soutien technique & logistique : Manuel Goepfert

Contact : metmap@orbifly.com




SOURCES & CREDITS :

   NOAA       Earth
Advisory